Time;durP1;ratioP1;P1;durP2;ratioP2;P2;SDS_P1;SDS_P2;PMS_P1;PMS_P2;Temp;Humidity;BMP_temperature;BMP_pressure;BME280_temperature;BME280_humidity;BME280_pressure;Samples;Min_cycle;Max_cycle;Signal;HPM_P1;HPM_P2
2023/10/31 00:02:11;;;;;;;0.10;0.10;;;;;;;11.85;75.80;101293.94;4940842;28;20096;-90
2023/10/31 00:04:37;;;;;;;0.10;0.10;;;;;;;11.70;76.08;101280.72;4941188;28;20035;-89
2023/10/31 00:07:03;;;;;;;0.10;0.10;;;;;;;11.59;76.20;101269.94;4925449;28;20030;-91
2023/10/31 00:09:28;;;;;;;0.10;0.10;;;;;;;11.58;76.44;101283.81;4940942;28;20039;-88
2023/10/31 00:11:53;;;;;;;0.10;0.10;;;;;;;11.62;76.50;101284.53;4940920;28;20444;-87
2023/10/31 00:14:19;;;;;;;0.10;0.10;;;;;;;11.67;76.57;101282.56;4956175;28;20031;-89
2023/10/31 00:16:44;;;;;;;0.20;0.20;;;;;;;11.64;76.66;101283.56;4924889;28;20034;-89
2023/10/31 00:19:10;;;;;;;0.10;0.10;;;;;;;11.72;76.38;101294.44;4925077;28;20493;-88
2023/10/31 00:21:35;;;;;;;0.10;0.10;;;;;;;11.60;76.38;101265.59;4941012;28;20084;-90
2023/10/31 00:24:03;;;;;;;0.10;0.10;;;;;;;11.60;76.54;101261.28;4940660;28;20086;-88
2023/10/31 00:26:28;;;;;;;0.10;0.10;;;;;;;11.70;76.73;101278.13;4956943;28;20058;-90
2023/10/31 00:28:53;;;;;;;0.10;0.10;;;;;;;11.66;76.71;101270.53;4953519;28;20057;-88
2023/10/31 00:31:19;;;;;;;0.10;0.10;;;;;;;11.73;76.72;101271.94;4959434;28;20484;-88
2023/10/31 00:33:44;;;;;;;0.10;0.10;;;;;;;11.70;77.05;101275.53;4991833;28;20401;-88
2023/10/31 00:36:10;;;;;;;0.10;0.10;;;;;;;11.69;77.64;101276.41;4975871;28;20030;-88
2023/10/31 00:38:35;;;;;;;0.10;0.10;;;;;;;11.68;77.73;101269.53;4976183;28;20030;-88
2023/10/31 00:41:01;;;;;;;0.10;0.10;;;;;;;11.67;77.97;101261.84;4975762;28;20089;-89
2023/10/31 00:43:26;;;;;;;0.10;0.10;;;;;;;11.75;77.79;101265.78;4992151;28;20084;-89
2023/10/31 00:45:52;;;;;;;0.10;0.10;;;;;;;11.76;77.79;101271.81;4975467;28;20484;-88
2023/10/31 00:48:17;;;;;;;0.13;0.13;;;;;;;11.49;77.67;101232.38;4991969;28;20026;-87
2023/10/31 00:50:43;;;;;;;0.20;0.20;;;;;;;11.69;78.15;101268.63;4993354;28;20038;-89
2023/10/31 00:53:08;;;;;;;0.10;0.10;;;;;;;11.60;77.68;101255.22;4959538;28;20035;-89
2023/10/31 00:55:34;;;;;;;0.20;0.20;;;;;;;11.60;78.24;101261.28;4975486;28;20039;-89
2023/10/31 00:57:59;;;;;;;0.10;0.10;;;;;;;11.60;77.85;101256.09;4991615;28;20488;-89
2023/10/31 01:00:25;;;;;;;0.10;0.10;;;;;;;11.63;77.73;101262.88;4991443;28;20436;-89
2023/10/31 01:02:50;;;;;;;0.10;0.10;;;;;;;11.64;77.80;101265.41;4975965;28;20042;-89
2023/10/31 01:05:16;;;;;;;0.10;0.10;;;;;;;11.55;77.90;101270.13;4975531;28;20038;-89
2023/10/31 01:07:41;;;;;;;0.10;0.10;;;;;;;11.39;78.56;101267.34;4975493;28;20121;-89
2023/10/31 01:10:07;;;;;;;0.10;0.10;;;;;;;11.33;78.25;101252.91;4975628;28;20089;-88
2023/10/31 01:12:33;;;;;;;0.20;0.20;;;;;;;11.38;78.30;101263.06;4991744;28;20484;-89
2023/10/31 01:14:58;;;;;;;0.10;0.10;;;;;;;11.44;77.47;101260.25;4991160;28;20513;-88
2023/10/31 01:17:24;;;;;;;0.10;0.10;;;;;;;11.34;77.59;101264.13;4975269;28;20027;-90
2023/10/31 01:19:49;;;;;;;0.10;0.10;;;;;;;11.27;77.21;101265.28;4959093;28;20030;-89
2023/10/31 01:22:14;;;;;;;0.20;0.20;;;;;;;11.15;77.39;101249.34;4975067;28;20022;-89
2023/10/31 01:24:40;;;;;;;0.10;0.10;;;;;;;11.11;76.95;101252.97;4991119;28;20475;-89
2023/10/31 01:27:05;;;;;;;0.10;0.10;;;;;;;11.12;77.08;101241.72;4974890;28;20030;-90
2023/10/31 01:29:31;;;;;;;0.20;0.20;;;;;;;11.12;77.60;101249.47;4958385;28;20054;-89
2023/10/31 01:31:56;;;;;;;0.10;0.10;;;;;;;11.17;77.60;101252.72;4959167;28;20026;-88
2023/10/31 01:34:22;;;;;;;0.10;0.10;;;;;;;10.99;77.54;101227.56;4990745;28;20464;-88
2023/10/31 01:36:48;;;;;;;0.10;0.10;;;;;;;11.10;77.63;101234.88;4975101;28;20105;-88
2023/10/31 01:39:13;;;;;;;0.20;0.20;;;;;;;11.11;77.92;101240.03;4990867;28;20042;-89
2023/10/31 01:41:42;;;;;;;0.15;0.15;;;;;;;11.01;77.64;101219.72;4991052;28;20480;-90
2023/10/31 01:44:07;;;;;;;0.10;0.10;;;;;;;11.02;77.72;101224.88;4990910;28;20488;-88
2023/10/31 01:46:32;;;;;;;0.10;0.10;;;;;;;11.08;77.62;101240.13;4990573;28;20085;-88
2023/10/31 01:48:58;;;;;;;0.10;0.10;;;;;;;10.87;77.48;101191.84;4974649;28;20038;-89
2023/10/31 01:51:23;;;;;;;0.10;0.10;;;;;;;11.10;77.63;101243.50;4974529;28;20038;-88
2023/10/31 01:53:49;;;;;;;0.10;0.10;;;;;;;10.82;78.93;101230.84;4990766;28;20026;-89
2023/10/31 01:56:14;;;;;;;0.10;0.10;;;;;;;10.83;79.33;101240.31;4990606;28;20034;-88
2023/10/31 01:58:41;;;;;;;0.10;0.10;;;;;;;10.85;79.62;101227.31;4974131;28;20030;-88
2023/10/31 02:01:07;;;;;;;0.20;0.20;;;;;;;10.94;79.12;101234.69;4990872;28;20030;-90
2023/10/31 02:03:33;;;;;;;0.10;0.10;;;;;;;10.91;78.63;101220.13;4974005;28;20515;-88
2023/10/31 02:05:58;;;;;;;0.20;0.20;;;;;;;11.00;79.43;101237.00;4990650;28;20034;-89
2023/10/31 02:08:25;;;;;;;0.10;0.10;;;;;;;10.81;79.92;101223.13;4974383;28;20030;-89
2023/10/31 02:10:50;;;;;;;0.10;0.10;;;;;;;10.90;79.87;101238.28;4990614;28;20054;-90
2023/10/31 02:13:17;;;;;;;0.20;0.20;;;;;;;10.91;79.49;101229.63;4974036;28;20061;-88
2023/10/31 02:15:43;;;;;;;0.10;0.10;;;;;;;10.90;79.11;101212.41;4990436;28;20026;-88
2023/10/31 02:18:09;;;;;;;0.10;0.10;;;;;;;10.95;79.13;101218.25;4958150;28;20173;-89
2023/10/31 02:20:35;;;;;;;0.10;0.10;;;;;;;10.95;79.34;101218.25;4974086;28;20121;-89
2023/10/31 02:23:01;;;;;;;0.10;0.10;;;;;;;10.81;80.16;101208.44;4990545;28;20065;-90
2023/10/31 02:25:26;;;;;;;0.20;0.20;;;;;;;10.90;80.63;101222.75;4973592;28;20058;-89
2023/10/31 02:27:52;;;;;;;0.10;0.10;;;;;;;10.93;80.18;101220.06;4973788;28;20488;-88
2023/10/31 02:30:17;;;;;;;0.10;0.10;;;;;;;10.88;80.17;101220.25;4990061;28;20463;-88
2023/10/31 02:32:43;;;;;;;0.10;0.10;;;;;;;10.91;79.61;101209.78;4990288;28;20046;-88
2023/10/31 02:35:09;;;;;;;0.10;0.10;;;;;;;10.77;79.06;101181.00;4990498;28;20485;-89
2023/10/31 02:37:34;;;;;;;0.10;0.10;;;;;;;10.74;79.82;101175.13;4996351;28;20066;-87
2023/10/31 02:40:00;;;;;;;0.10;0.10;;;;;;;10.80;79.33;101214.53;4997002;28;20504;-89
2023/10/31 02:42:26;;;;;;;0.10;0.10;;;;;;;10.72;79.87;101214.03;4980137;28;20034;-88
2023/10/31 02:44:51;;;;;;;0.10;0.10;;;;;;;10.69;79.79;101208.09;4980297;28;20030;-88
2023/10/31 02:47:17;;;;;;;0.10;0.10;;;;;;;10.65;80.06;101196.19;4980138;28;20034;-88
2023/10/31 02:49:42;;;;;;;0.20;0.20;;;;;;;10.82;80.41;101219.66;4996509;28;20034;-88
2023/10/31 02:52:07;;;;;;;0.10;0.10;;;;;;;10.62;80.74;101198.03;4980533;28;20033;-88
2023/10/31 02:54:33;;;;;;;0.20;0.20;;;;;;;10.79;80.11;101225.78;4996564;28;20034;-88
2023/10/31 02:56:58;;;;;;;0.10;0.10;;;;;;;10.43;80.23;101185.88;4996555;28;20049;-89
2023/10/31 02:59:24;;;;;;;0.10;0.10;;;;;;;10.73;79.79;101227.81;4980290;28;20065;-89
2023/10/31 03:01:49;;;;;;;0.10;0.10;;;;;;;10.57;80.49;101219.78;4963984;28;20481;-90
2023/10/31 03:04:15;;;;;;;0.10;0.10;;;;;;;10.32;79.81;101223.34;4980288;28;20492;-89
2023/10/31 03:06:40;;;;;;;0.10;0.10;;;;;;;10.17;79.89;101198.03;4996287;28;20040;-88
2023/10/31 03:09:06;;;;;;;0.20;0.20;;;;;;;10.35;80.00;101224.97;4980155;28;20037;-88
2023/10/31 03:11:32;;;;;;;0.10;0.10;;;;;;;10.37;79.77;101219.72;4979656;28;20026;-88
2023/10/31 03:13:57;;;;;;;0.10;0.10;;;;;;;10.27;79.43;101196.81;4964044;28;20424;-89
2023/10/31 03:16:23;;;;;;;0.10;0.10;;;;;;;10.32;79.06;101214.72;4980231;28;20027;-89
2023/10/31 03:18:48;;;;;;;0.20;0.20;;;;;;;10.29;79.64;101209.66;4996304;28;20034;-87
2023/10/31 03:21:14;;;;;;;0.10;0.10;;;;;;;10.29;79.48;101205.34;4979899;28;20481;-88
2023/10/31 03:23:41;;;;;;;0.20;0.20;;;;;;;10.27;79.39;101201.13;4980093;28;20026;-89
2023/10/31 03:26:06;;;;;;;0.10;0.10;;;;;;;10.24;80.13;101196.94;4996250;28;20053;-88
2023/10/31 03:28:32;;;;;;;0.10;0.10;;;;;;;10.32;79.81;101194.03;4963708;28;20500;-89
2023/10/31 03:30:57;;;;;;;0.10;0.10;;;;;;;10.24;79.66;101171.06;4996212;28;20030;-88
2023/10/31 03:33:23;;;;;;;0.20;0.20;;;;;;;10.21;79.15;101162.53;4979757;28;20019;-89
2023/10/31 03:35:49;;;;;;;0.10;0.10;;;;;;;10.38;79.45;101180.03;4980080;28;20026;-89
2023/10/31 03:38:14;;;;;;;0.10;0.10;;;;;;;10.10;79.94;101137.09;4980091;28;20041;-88
2023/10/31 03:40:40;;;;;;;0.10;0.10;;;;;;;10.41;79.31;101178.16;4979658;28;20042;-88
2023/10/31 03:43:05;;;;;;;0.10;0.10;;;;;;;10.33;79.12;101169.88;4979881;28;20023;-90
2023/10/31 03:45:31;;;;;;;0.10;0.10;;;;;;;10.27;79.50;101172.69;4979424;28;20022;-88
2023/10/31 03:47:57;;;;;;;0.10;0.10;;;;;;;10.14;79.49;101155.94;4960695;28;20033;-90
2023/10/31 03:50:22;;;;;;;0.10;0.10;;;;;;;10.38;79.52;101182.59;4976618;28;20058;-88
2023/10/31 03:52:47;;;;;;;0.20;0.20;;;;;;;10.31;79.07;101162.16;4977001;28;20412;-88
2023/10/31 03:55:13;;;;;;;0.13;0.13;;;;;;;10.32;78.88;101150.94;4992600;28;20026;-87
2023/10/31 03:57:39;;;;;;;0.10;0.10;;;;;;;10.52;79.03;101186.34;4993341;28;20030;-90
2023/10/31 04:00:07;;;;;;;0.20;0.20;;;;;;;10.46;78.28;101189.16;4992822;28;20030;-86
2023/10/31 04:02:32;;;;;;;0.10;0.10;;;;;;;10.33;78.48;101187.97;4992635;28;20033;-86
2023/10/31 04:04:58;;;;;;;0.10;0.10;;;;;;;10.36;78.59;101187.00;4992621;28;20018;-87
2023/10/31 04:07:23;;;;;;;0.20;0.20;;;;;;;10.25;79.22;101182.25;4992368;28;20026;-86
2023/10/31 04:09:49;;;;;;;0.10;0.10;;;;;;;10.36;78.92;101195.59;4975749;28;20035;-87
2023/10/31 04:12:14;;;;;;;0.10;0.10;;;;;;;10.55;78.50;101201.75;4992472;28;20030;-87
2023/10/31 04:14:40;;;;;;;0.20;0.20;;;;;;;10.72;78.84;101190.72;4960069;28;20022;-88
2023/10/31 04:17:05;;;;;;;0.20;0.20;;;;;;;10.98;77.03;101181.88;4992191;28;20046;-86
2023/10/31 04:19:30;;;;;;;0.10;0.10;;;;;;;10.86;76.51;101184.97;4992329;28;20065;-87
2023/10/31 04:21:56;;;;;;;0.10;0.10;;;;;;;10.77;76.64;101185.34;4992335;28;20026;-87
2023/10/31 04:24:21;;;;;;;0.10;0.10;;;;;;;10.71;76.65;101191.59;4959410;28;20097;-87
2023/10/31 04:26:47;;;;;;;0.10;0.10;;;;;;;10.76;76.72;101200.03;4959750;28;20093;-87
2023/10/31 04:29:12;;;;;;;0.13;0.13;;;;;;;10.63;76.54;101193.69;4975736;28;20416;-88
2023/10/31 04:31:38;;;;;;;0.10;0.10;;;;;;;10.55;76.41;101201.75;4992101;28;20026;-88
2023/10/31 04:34:04;;;;;;;0.10;0.10;;;;;;;10.44;75.97;101203.91;4991795;28;20069;-88
2023/10/31 04:36:29;;;;;;;0.10;0.10;;;;;;;10.24;75.78;101201.25;4975772;28;20412;-87
2023/10/31 04:38:55;;;;;;;0.10;0.10;;;;;;;10.22;76.41;101213.38;4959324;28;20034;-87
2023/10/31 04:41:20;;;;;;;0.10;0.10;;;;;;;9.98;76.20;101174.59;4991870;28;20030;-87
2023/10/31 04:43:45;;;;;;;0.17;0.17;;;;;;;10.17;76.15;101212.69;4992119;28;20030;-87
2023/10/31 04:46:11;;;;;;;0.10;0.10;;;;;;;10.07;76.30;101223.38;4991859;28;20038;-87
2023/10/31 04:48:36;;;;;;;0.10;0.10;;;;;;;9.87;76.79;101215.53;4975707;28;20034;-87
2023/10/31 04:51:02;;;;;;;0.10;0.10;;;;;;;9.96;76.89;101228.09;4959460;28;20034;-87
2023/10/31 04:53:28;;;;;;;0.20;0.20;;;;;;;9.77;77.22;101227.09;4986277;28;20527;-94
2023/10/31 04:55:53;;;;;;;0.20;0.20;;;;;;;9.70;78.03;101235.94;4998551;28;20033;-92
2023/10/31 04:58:19;;;;;;;0.10;0.10;;;;;;;9.81;77.99;101233.81;4981128;28;20038;-94
2023/10/31 05:00:45;;;;;;;0.10;0.10;;;;;;;9.88;77.61;101240.47;4997889;28;20411;-92
2023/10/31 05:03:10;;;;;;;0.10;0.10;;;;;;;9.76;77.91;101218.50;4997202;28;20445;-93
2023/10/31 05:05:36;;;;;;;0.10;0.10;;;;;;;9.87;77.54;101209.50;4981504;28;20030;-94
2023/10/31 05:08:01;;;;;;;0.10;0.10;;;;;;;9.85;77.27;101200.97;5013454;28;20034;-92
2023/10/31 05:10:26;;;;;;;0.10;0.10;;;;;;;9.75;78.08;101214.22;5003384;28;20038;-93
2023/10/31 05:12:52;;;;;;;0.10;0.10;;;;;;;9.74;77.59;101196.19;5010994;28;20526;-84
2023/10/31 05:15:18;;;;;;;0.10;0.10;;;;;;;9.58;77.61;101195.91;4995403;28;20412;-92
2023/10/31 05:17:43;;;;;;;0.20;0.20;;;;;;;9.55;79.04;101195.19;4992419;28;20030;-84
2023/10/31 05:20:09;;;;;;;0.20;0.20;;;;;;;9.69;78.86;101203.25;5016474;28;20033;-85
2023/10/31 05:22:36;;;;;;;0.10;0.10;;;;;;;9.73;78.53;101179.84;5011558;28;20071;-87
2023/10/31 05:25:02;;;;;;;0.10;0.10;;;;;;;9.72;78.77;101182.47;4994216;28;20040;-86
2023/10/31 05:27:28;;;;;;;0.10;0.10;;;;;;;9.85;78.48;101193.22;5010069;28;20026;-88
2023/10/31 05:29:54;;;;;;;0.10;0.10;;;;;;;9.80;79.19;101201.13;4996352;28;20061;-92
2023/10/31 05:32:20;;;;;;;0.10;0.10;;;;;;;9.67;79.48;101177.47;5022783;28;20025;-94
2023/10/31 05:34:45;;;;;;;0.10;0.10;;;;;;;9.83;79.23;101190.66;5010913;28;20041;-93
2023/10/31 05:37:10;;;;;;;0.20;0.20;;;;;;;9.78;79.07;101193.44;4994215;28;20030;-91
2023/10/31 05:39:36;;;;;;;0.20;0.20;;;;;;;9.87;78.46;101184.50;4993775;28;20034;-89
2023/10/31 05:42:03;;;;;;;0.10;0.10;;;;;;;9.66;77.11;101182.72;5000738;28;20040;-93
2023/10/31 05:44:28;;;;;;;0.20;0.20;;;;;;;9.58;78.45;101188.16;5000937;28;20089;-93
2023/10/31 05:46:54;;;;;;;0.10;0.10;;;;;;;9.66;78.74;101177.53;5012191;28;20488;-91
2023/10/31 05:49:19;;;;;;;0.20;0.20;;;;;;;9.76;78.45;101191.81;5010618;28;20414;-89
2023/10/31 05:51:49;;;;;;;0.10;0.10;;;;;;;9.78;78.87;101177.94;4974569;28;20037;-86
2023/10/31 05:54:14;;;;;;;0.10;0.10;;;;;;;9.80;78.74;101175.28;4996125;28;20056;-92
2023/10/31 05:56:40;;;;;;;0.10;0.10;;;;;;;9.75;79.47;101174.63;4994424;28;21011;-86
2023/10/31 05:59:05;;;;;;;0.10;0.10;;;;;;;9.85;79.28;101168.22;5007984;28;20044;-90
2023/10/31 06:01:31;;;;;;;0.10;0.10;;;;;;;9.87;79.80;101171.59;5000188;28;20033;-92
2023/10/31 06:03:56;;;;;;;0.20;0.20;;;;;;;9.90;80.04;101181.81;5012773;28;20507;-90
2023/10/31 06:06:22;;;;;;;0.20;0.20;;;;;;;9.87;80.54;101192.25;5004696;28;20030;-92
2023/10/31 06:08:47;;;;;;;0.20;0.20;;;;;;;9.82;81.08;101185.56;4995324;28;20030;-89
2023/10/31 06:11:13;;;;;;;0.10;0.10;;;;;;;9.95;80.99;101198.00;5013598;28;20042;-90
2023/10/31 06:13:38;;;;;;;0.13;0.13;;;;;;;10.01;81.09;101205.50;5014406;28;20034;-93
2023/10/31 06:16:05;;;;;;;0.20;0.20;;;;;;;10.09;81.71;101209.53;5025199;28;20032;-88
2023/10/31 06:18:30;;;;;;;0.20;0.20;;;;;;;9.96;82.01;101210.00;5003010;28;20030;-90
2023/10/31 06:20:56;;;;;;;0.20;0.20;;;;;;;9.96;82.35;101185.91;4989699;28;20419;-89
2023/10/31 06:23:21;;;;;;;0.20;0.20;;;;;;;10.18;82.33;101201.44;4995559;28;20022;-89
2023/10/31 06:25:47;;;;;;;0.20;0.20;;;;;;;10.00;83.50;101177.13;4994308;28;20037;-84
2023/10/31 06:28:13;;;;;;;0.20;0.20;;;;;;;10.22;83.59;101187.53;5010418;28;20085;-91
2023/10/31 06:30:38;;;;;;;0.10;0.10;;;;;;;10.32;83.89;101196.59;4978461;28;20033;-89
2023/10/31 06:33:03;;;;;;;0.20;0.20;;;;;;;10.19;84.27;101203.13;4965612;28;20085;-92
2023/10/31 06:35:29;;;;;;;0.10;0.10;;;;;;;10.18;84.34;101202.28;4967157;28;20084;-91
2023/10/31 06:37:56;;;;;;;0.10;0.10;;;;;;;10.29;84.85;101194.16;4965662;28;20049;-93
2023/10/31 06:40:21;;;;;;;0.10;0.10;;;;;;;10.45;84.11;101194.41;4958440;28;20077;-92
2023/10/31 06:42:47;;;;;;;0.10;0.10;;;;;;;10.60;83.28;101210.16;4960559;28;20030;-90
2023/10/31 06:45:12;;;;;;;0.20;0.20;;;;;;;10.57;83.22;101212.03;4959212;28;20041;-93
2023/10/31 06:47:38;;;;;;;0.20;0.20;;;;;;;10.74;81.59;101221.72;4959031;28;20034;-92
2023/10/31 06:50:03;;;;;;;0.10;0.10;;;;;;;10.66;81.02;101213.41;4978715;28;20030;-88
2023/10/31 06:52:29;;;;;;;0.10;0.10;;;;;;;10.61;79.47;101205.81;4945930;28;20027;-90
2023/10/31 06:54:54;;;;;;;0.10;0.10;;;;;;;10.71;79.06;101211.47;4956479;28;20520;-89
2023/10/31 06:57:20;;;;;;;0.20;0.20;;;;;;;10.73;80.02;101215.69;4942540;28;20031;-94
2023/10/31 06:59:46;;;;;;;0.10;0.10;;;;;;;10.67;80.52;101225.44;4995478;28;20105;-85
2023/10/31 07:02:11;;;;;;;0.13;0.13;;;;;;;10.70;80.59;101194.25;4977972;28;20526;-86
2023/10/31 07:04:37;;;;;;;0.10;0.10;;;;;;;10.82;80.54;101204.13;5000968;28;20113;-86
2023/10/31 07:07:03;;;;;;;0.10;0.10;;;;;;;10.88;80.76;101203.88;4969824;28;20034;-90
2023/10/31 07:09:29;;;;;;;0.10;0.10;;;;;;;11.03;80.29;101210.19;4961414;28;20347;-91
2023/10/31 07:11:54;;;;;;;0.10;0.10;;;;;;;11.04;80.19;101206.69;4975907;28;20412;-86
2023/10/31 07:14:20;;;;;;;0.10;0.10;;;;;;;11.02;80.67;101211.09;4976342;28;20033;-88
2023/10/31 07:16:45;;;;;;;0.20;0.20;;;;;;;11.12;80.62;101202.88;4981235;28;20396;-90
2023/10/31 07:19:11;;;;;;;0.10;0.10;;;;;;;11.26;80.47;101194.50;4974814;28;20038;-84
2023/10/31 07:21:36;;;;;;;0.20;0.20;;;;;;;11.38;80.74;101191.38;4972730;28;20174;-92
2023/10/31 07:24:02;;;;;;;0.10;0.10;;;;;;;11.57;80.34;101209.56;4967342;28;20022;-89
2023/10/31 07:26:27;;;;;;;0.10;0.10;;;;;;;11.78;79.92;101212.94;4991522;28;20038;-90
2023/10/31 07:28:53;;;;;;;0.20;0.20;;;;;;;11.88;79.99;101203.88;4997496;28;20050;-92
2023/10/31 07:31:18;;;;;;;0.22;0.22;;;;;;;12.09;79.32;101196.03;5011819;28;20036;-90
2023/10/31 07:33:47;;;;;;;0.20;0.20;;;;;;;12.13;78.71;101175.09;4995270;28;20109;-89
2023/10/31 07:36:13;;;;;;;0.20;0.20;;;;;;;12.25;78.94;101182.28;5031305;28;20033;-92
2023/10/31 07:38:39;;;;;;;0.10;0.10;;;;;;;12.35;78.30;101199.09;5028769;28;20037;-91
2023/10/31 07:41:04;;;;;;;0.10;0.10;;;;;;;12.44;78.77;101189.22;5030969;28;20029;-87
2023/10/31 07:43:30;;;;;;;0.20;0.20;;;;;;;12.59;77.83;101198.88;4982212;28;20514;-87
2023/10/31 07:45:55;;;;;;;0.10;0.10;;;;;;;12.81;76.61;101196.91;5016608;28;20038;-91
2023/10/31 07:48:20;;;;;;;0.20;0.20;;;;;;;12.91;76.11;101197.28;4997755;28;20083;-89
2023/10/31 07:50:46;;;;;;;0.20;0.20;;;;;;;12.98;76.09;101187.41;4996890;28;20049;-90
2023/10/31 07:53:11;;;;;;;0.20;0.20;;;;;;;13.07;76.06;101186.97;4982556;28;20050;-93
2023/10/31 07:55:37;;;;;;;0.10;0.10;;;;;;;13.06;74.81;101164.50;4998201;28;20125;-91
2023/10/31 07:58:02;;;;;;;0.10;0.10;;;;;;;13.44;74.75;101186.78;5019933;28;20505;-88
2023/10/31 08:00:28;;;;;;;0.20;0.20;;;;;;;13.53;74.31;101184.66;5005944;28;20045;-93
2023/10/31 08:02:53;;;;;;;0.10;0.10;;;;;;;13.64;74.18;101169.31;5001569;28;20034;-87
2023/10/31 08:05:19;;;;;;;0.17;0.17;;;;;;;13.70;73.60;101151.66;5018274;28;20034;-92
2023/10/31 08:07:44;;;;;;;0.10;0.10;;;;;;;13.79;72.30;101160.72;5014037;28;20041;-87
2023/10/31 08:10:10;;;;;;;0.10;0.10;;;;;;;13.90;71.83;101163.56;5001866;28;20479;-93
2023/10/31 08:12:35;;;;;;;0.20;0.20;;;;;;;13.93;72.02;101163.41;5008038;28;20037;-87
2023/10/31 08:15:01;;;;;;;0.20;0.20;;;;;;;13.97;71.18;101151.09;4994906;28;20034;-92
2023/10/31 08:17:27;;;;;;;0.20;0.20;;;;;;;13.98;72.07;101137.16;5015845;28;20026;-89
2023/10/31 08:19:52;;;;;;;0.10;0.10;;;;;;;14.21;72.20;101146.28;5023557;28;20479;-90
2023/10/31 08:22:18;;;;;;;0.20;0.20;;;;;;;14.29;71.18;101144.09;5003067;28;20438;-93
2023/10/31 08:24:43;;;;;;;0.13;0.13;;;;;;;14.14;70.05;101150.13;4991539;28;20140;-90
2023/10/31 08:27:10;;;;;;;0.10;0.10;;;;;;;14.22;70.21;101142.75;5002517;28;20034;-92
2023/10/31 08:29:35;;;;;;;0.10;0.10;;;;;;;14.20;70.16;101140.22;5001179;28;20050;-92
2023/10/31 08:32:01;;;;;;;0.20;0.20;;;;;;;14.21;70.63;101134.09;5012844;28;20901;-90
2023/10/31 08:34:26;;;;;;;0.10;0.10;;;;;;;14.31;70.39;101126.63;4997303;28;20505;-89
2023/10/31 08:36:52;;;;;;;0.10;0.10;;;;;;;14.56;68.80;101139.13;5020411;28;20013;-91
2023/10/31 08:39:18;;;;;;;0.20;0.20;;;;;;;14.74;67.19;101129.38;4988818;28;20048;-93
2023/10/31 08:41:53;;;;;;;0.20;0.20;;;;;;;14.82;66.10;101121.97;5015878;28;20455;-92
2023/10/31 08:44:19;;;;;;;0.20;0.20;;;;;;;14.91;65.98;101121.44;5001074;28;20034;-90
2023/10/31 08:46:44;;;;;;;0.10;0.10;;;;;;;14.96;66.46;101113.34;5022654;28;20026;-87
2023/10/31 08:49:10;;;;;;;0.20;0.20;;;;;;;15.09;66.60;101119.50;5015621;28;20037;-88
2023/10/31 08:51:35;;;;;;;0.20;0.20;;;;;;;15.23;65.66;101122.09;5023377;28;20088;-86
2023/10/31 08:54:00;;;;;;;0.20;0.20;;;;;;;15.20;66.09;101109.28;4976388;28;20113;-88
2023/10/31 08:56:27;;;;;;;0.20;0.20;;;;;;;15.32;64.64;101073.78;4998505;28;20033;-89
2023/10/31 08:58:53;;;;;;;0.10;0.10;;;;;;;15.60;64.85;101094.66;4992015;28;20058;-91
2023/10/31 09:01:19;;;;;;;0.10;0.10;;;;;;;15.73;64.98;101089.50;4992690;28;20029;-91
2023/10/31 09:03:44;;;;;;;0.10;0.10;;;;;;;15.95;63.83;101089.00;5026941;28;20022;-88
2023/10/31 09:06:10;;;;;;;0.10;0.10;;;;;;;15.96;63.26;101088.06;4987240;28;20480;-91
2023/10/31 09:08:36;;;;;;;0.20;0.20;;;;;;;15.76;64.66;101048.41;4987551;28;20041;-86
2023/10/31 09:11:03;;;;;;;0.20;0.20;;;;;;;15.98;64.86;101076.56;5004706;28;20041;-92
2023/10/31 09:13:29;;;;;;;0.13;0.13;;;;;;;16.04;63.01;101073.59;4999260;28;20058;-90
2023/10/31 09:15:54;;;;;;;0.10;0.10;;;;;;;16.15;62.50;101064.22;4999242;28;20046;-91
2023/10/31 09:18:20;;;;;;;0.10;0.10;;;;;;;16.06;62.11;101034.34;4990288;28;20030;-91
2023/10/31 09:20:45;;;;;;;0.10;0.10;;;;;;;16.35;62.53;101072.41;4995147;28;20030;-92
2023/10/31 09:23:11;;;;;;;0.20;0.20;;;;;;;16.38;62.05;101066.16;4980110;28;20519;-90
2023/10/31 09:25:36;;;;;;;0.10;0.10;;;;;;;16.46;61.94;101063.03;4998071;28;20045;-91
2023/10/31 09:28:02;;;;;;;0.20;0.20;;;;;;;16.66;62.17;101054.69;5000841;28;20487;-89
2023/10/31 09:30:27;;;;;;;0.20;0.20;;;;;;;16.79;60.55;101060.78;4971907;28;20038;-85
2023/10/31 09:32:53;;;;;;;0.10;0.10;;;;;;;16.74;60.59;101039.38;4967170;28;20039;-89
2023/10/31 09:35:18;;;;;;;0.10;0.10;;;;;;;16.91;60.58;101044.28;4954797;28;20039;-90
2023/10/31 09:37:48;;;;;;;0.10;0.10;;;;;;;17.05;60.43;101034.66;4958740;28;20030;-93
2023/10/31 09:40:13;;;;;;;0.20;0.20;;;;;;;17.34;59.48;101038.69;4976044;28;20474;-89
2023/10/31 09:42:39;;;;;;;0.10;0.10;;;;;;;17.20;58.68;101002.19;4944931;28;20030;-89
2023/10/31 09:45:05;;;;;;;0.20;0.20;;;;;;;17.46;59.34;101034.34;4961452;28;20034;-91
2023/10/31 09:47:30;;;;;;;0.15;0.15;;;;;;;17.49;59.04;101014.03;4965510;28;20037;-86
2023/10/31 09:49:56;;;;;;;0.10;0.10;;;;;;;17.60;58.55;100999.34;4955767;28;20038;-89
2023/10/31 09:52:22;;;;;;;0.10;0.10;;;;;;;17.64;58.50;100995.56;4958698;28;20038;-86
2023/10/31 09:54:48;;;;;;;0.10;0.10;;;;;;;17.74;58.66;100991.38;4926533;28;20061;-95
2023/10/31 09:57:14;;;;;;;0.10;0.10;;;;;;;17.72;58.58;100978.41;4941742;28;20030;-89
2023/10/31 09:59:39;;;;;;;0.20;0.20;;;;;;;17.80;59.03;100975.25;4949496;28;20061;-88
2023/10/31 10:02:05;;;;;;;0.10;0.10;;;;;;;17.86;58.61;100969.53;4959641;28;20034;-85
2023/10/31 10:04:30;;;;;;;0.10;0.10;;;;;;;18.37;61.88;100953.47;4962517;28;20034;-92
2023/10/31 10:07:00;;;;;;;0.10;0.10;;;;;;;18.21;58.42;100940.72;4951846;28;20035;-88
2023/10/31 10:09:27;;;;;;;0.10;0.10;;;;;;;18.18;56.24;100948.78;4966175;28;20034;-85
2023/10/31 10:11:52;;;;;;;0.10;0.10;;;;;;;18.10;56.77;100925.00;4940226;28;20049;-92
2023/10/31 10:14:18;;;;;;;0.10;0.10;;;;;;;18.04;57.37;100914.97;4961555;28;20030;-92
2023/10/31 10:16:43;;;;;;;0.10;0.10;;;;;;;18.02;57.60;100906.41;4952625;28;20566;-88
2023/10/31 10:19:22;;;;;;;0.20;0.20;;;;;;;17.88;57.28;100906.59;4939843;28;20042;-88
2023/10/31 10:21:50;;;;;;;0.10;0.10;;;;;;;17.76;57.24;100885.63;4937341;28;20493;-90
2023/10/31 10:24:17;;;;;;;0.10;0.10;;;;;;;17.69;57.37;100883.56;4947766;28;20040;-86
2023/10/31 10:26:43;;;;;;;0.15;0.15;;;;;;;17.68;57.53;100902.81;4981530;28;20030;-86
2023/10/31 10:29:08;;;;;;;0.20;0.20;;;;;;;17.57;58.32;100880.06;4974924;28;20057;-93
2023/10/31 10:31:33;;;;;;;0.20;0.20;;;;;;;17.74;58.08;100889.31;4995047;28;20076;-90
2023/10/31 10:34:01;;;;;;;0.10;0.10;;;;;;;17.80;57.80;100888.88;4980675;28;20041;-89
2023/10/31 10:36:26;;;;;;;0.10;0.10;;;;;;;17.67;57.38;100864.53;4980134;28;20040;-88
2023/10/31 10:38:54;;;;;;;0.10;0.10;;;;;;;17.71;57.33;100873.88;4991700;28;20038;-88
2023/10/31 10:41:19;;;;;;;0.10;0.10;;;;;;;17.69;57.89;100841.69;4983425;28;20030;-87
2023/10/31 10:43:45;;;;;;;0.10;0.10;;;;;;;17.76;56.94;100848.16;4995409;28;20040;-87
2023/10/31 10:46:11;;;;;;;0.10;0.10;;;;;;;17.88;56.52;100844.63;4998848;28;20044;-91
2023/10/31 10:48:36;;;;;;;0.20;0.20;;;;;;;17.83;56.69;100838.91;5019009;28;20034;-91
2023/10/31 10:51:07;;;;;;;0.10;0.10;;;;;;;17.81;56.67;100832.97;4989231;28;20042;-91
2023/10/31 10:53:50;;;;;;;0.20;0.20;;;;;;;17.92;56.76;100834.78;4956712;28;20084;-85
2023/10/31 10:56:26;;;;;;;0.20;0.20;;;;;;;17.94;57.11;100830.25;4980026;28;20026;-91
2023/10/31 10:58:55;;;;;;;0.20;0.20;;;;;;;18.01;56.96;100826.22;4997543;28;20037;-91
2023/10/31 11:01:21;;;;;;;0.20;0.20;;;;;;;17.95;57.52;100811.78;4976940;28;20109;-88
2023/10/31 11:03:46;;;;;;;0.20;0.20;;;;;;;18.01;57.79;100810.50;4976606;28;20050;-85
2023/10/31 11:06:12;;;;;;;0.20;0.20;;;;;;;18.01;57.99;100806.09;4992400;28;20057;-89
2023/10/31 11:08:38;;;;;;;0.15;0.15;;;;;;;18.14;56.92;100797.28;4981589;28;20093;-91
2023/10/31 11:11:04;;;;;;;0.10;0.10;;;;;;;18.16;56.79;100792.75;4976198;28;20128;-89
2023/10/31 11:13:30;;;;;;;0.10;0.10;;;;;;;18.14;57.49;100794.69;4992985;28;20034;-88
2023/10/31 11:15:57;;;;;;;0.20;0.20;;;;;;;18.25;57.00;100797.28;4976201;28;20042;-83
2023/10/31 11:18:23;;;;;;;0.10;0.10;;;;;;;18.17;56.63;100787.41;4976315;28;20037;-85
2023/10/31 11:20:48;;;;;;;0.10;0.10;;;;;;;18.36;56.48;100797.28;4976765;28;20073;-89